Time;durP1;ratioP1;P1;durP2;ratioP2;P2;SDS_P1;SDS_P2;PMS_P1;PMS_P2;Temp;Humidity;BMP_temperature;BMP_pressure;BME280_temperature;BME280_humidity;BME280_pressure;Samples;Min_cycle;Max_cycle;Signal;HPM_P1;HPM_P2
2022/09/27 00:02:07;;;;;;;1.05;0.95;;;;;;;12.21;84.49;96925.34;5073038;27;102690;-62
2022/09/27 00:04:36;;;;;;;1.52;0.90;;;;;;;12.33;84.01;96917.94;5053057;27;102692;-61
2022/09/27 00:07:04;;;;;;;1.05;0.77;;;;;;;12.08;84.74;96914.44;5073128;27;103691;-60
2022/09/27 00:09:33;;;;;;;1.10;0.73;;;;;;;12.27;84.50;96912.47;5069694;27;103220;-60
2022/09/27 00:12:02;;;;;;;0.70;0.70;;;;;;;12.36;84.57;96916.78;5072303;27;102774;-61
2022/09/27 00:14:30;;;;;;;1.37;1.00;;;;;;;11.94;86.49;96912.41;5073556;27;102841;-61
2022/09/27 00:16:59;;;;;;;1.97;0.87;;;;;;;11.96;86.65;96914.88;5069344;27;104332;-60
2022/09/27 00:19:27;;;;;;;0.75;0.73;;;;;;;12.18;85.79;96909.78;5074930;27;103186;-61
2022/09/27 00:21:56;;;;;;;1.35;0.90;;;;;;;12.12;86.53;96904.34;5067514;27;102550;-60
2022/09/27 00:24:24;;;;;;;1.20;0.60;;;;;;;12.15;86.07;96910.13;5072461;27;104007;-61
2022/09/27 00:26:53;;;;;;;0.90;0.67;;;;;;;12.45;85.17;96907.84;5073055;27;104712;-60
2022/09/27 00:29:21;;;;;;;0.88;0.70;;;;;;;11.75;87.69;96896.00;5051029;27;102938;-61
2022/09/27 00:31:49;;;;;;;1.08;0.80;;;;;;;12.02;87.32;96904.47;5053465;27;102778;-60
2022/09/27 00:34:21;;;;;;;1.00;0.70;;;;;;;12.05;86.95;96904.16;5068604;27;102727;-60
2022/09/27 00:36:50;;;;;;;1.00;0.73;;;;;;;11.97;87.59;96903.31;5069127;27;102960;-60
2022/09/27 00:39:18;;;;;;;1.00;0.80;;;;;;;12.03;87.99;96900.03;5047390;27;103412;-60
2022/09/27 00:41:47;;;;;;;1.75;0.80;;;;;;;12.05;87.01;96898.88;5068545;27;102936;-60
2022/09/27 00:44:58;;;;;;;0.90;0.70;;;;;;;11.83;87.88;96894.19;5068736;27;103789;-60
2022/09/27 00:47:30;;;;;;;0.77;0.68;;;;;;;11.95;87.14;96889.44;5030798;27;104299;-60
2022/09/27 00:50:05;;;;;;;1.25;0.65;;;;;;;12.17;86.59;96897.56;5039613;27;104116;-60
2022/09/27 00:52:41;;;;;;;1.60;0.80;;;;;;;12.13;87.25;96895.41;5051514;27;103230;-60
2022/09/27 00:55:15;;;;;;;0.88;0.70;;;;;;;12.29;86.38;96898.09;5052504;27;102887;-60
2022/09/27 00:57:45;;;;;;;1.03;0.70;;;;;;;11.97;87.54;96903.31;5064716;27;103347;-60
2022/09/27 01:00:15;;;;;;;0.82;0.60;;;;;;;12.26;86.56;96890.47;5050606;27;104286;-60
2022/09/27 01:02:47;;;;;;;2.50;0.80;;;;;;;11.80;87.96;96883.09;5063665;27;102815;-61
2022/09/27 01:05:21;;;;;;;0.77;0.70;;;;;;;11.98;87.63;96887.28;5069666;27;104043;-61
2022/09/27 01:07:50;;;;;;;1.05;0.60;;;;;;;11.98;88.50;96891.75;5068937;27;103272;-61
2022/09/27 01:10:21;;;;;;;0.93;0.50;;;;;;;12.20;87.64;96889.31;5047441;27;103188;-60
2022/09/27 01:13:02;;;;;;;0.70;0.70;;;;;;;12.12;87.82;96891.94;5053353;27;102907;-60
2022/09/27 01:15:38;;;;;;;1.20;0.60;;;;;;;12.05;88.24;96890.94;5050073;27;104301;-61
2022/09/27 01:18:24;;;;;;;1.00;0.67;;;;;;;12.35;87.18;96888.66;5051720;27;104248;-60
2022/09/27 01:21:19;;;;;;;0.98;0.70;;;;;;;12.18;87.33;96883.31;5049292;27;104206;-60
2022/09/27 01:24:15;;;;;;;0.90;0.50;;;;;;;12.14;87.82;96886.47;5070084;27;103456;-60
2022/09/27 01:27:11;;;;;;;0.90;0.60;;;;;;;11.85;88.73;96892.22;5054172;27;102911;-60
2022/09/27 01:29:55;;;;;;;1.20;0.70;;;;;;;12.09;88.08;96886.16;5070386;27;103233;-60
2022/09/27 01:32:35;;;;;;;0.70;0.50;;;;;;;12.20;87.48;96886.66;5050518;27;104200;-61
2022/09/27 01:35:14;;;;;;;0.80;0.50;;;;;;;12.15;88.61;96894.25;5050291;27;103895;-60
2022/09/27 01:37:55;;;;;;;0.77;0.60;;;;;;;12.56;87.26;96881.84;5047944;27;103574;-60
2022/09/27 01:40:30;;;;;;;1.50;0.70;;;;;;;12.26;87.89;96871.09;5049472;27;104476;-60
2022/09/27 01:43:27;;;;;;;0.80;0.57;;;;;;;12.14;88.70;96868.78;5030220;27;104393;-60
2022/09/27 01:46:01;;;;;;;1.65;0.75;;;;;;;12.33;88.71;96869.44;5040288;27;102769;-60
2022/09/27 01:48:55;;;;;;;0.60;0.50;;;;;;;12.57;87.36;96867.63;5049539;27;102883;-60
2022/09/27 01:51:28;;;;;;;1.17;0.60;;;;;;;12.41;87.60;96877.38;5050751;27;104477;-60
2022/09/27 01:54:02;;;;;;;1.50;0.52;;;;;;;12.51;86.97;96868.28;5049167;27;104116;-60
2022/09/27 01:56:37;;;;;;;1.85;0.70;;;;;;;12.44;87.84;96883.16;5066926;27;102873;-61
2022/09/27 01:59:14;;;;;;;1.40;0.73;;;;;;;12.17;90.00;96881.69;5066837;27;103039;-59
2022/09/27 02:01:52;;;;;;;1.13;0.83;;;;;;;12.29;90.51;96878.72;5043774;27;105318;-59
2022/09/27 02:04:28;;;;;;;1.10;0.60;;;;;;;12.42;89.15;96884.34;5046928;27;103853;-60
2022/09/27 02:07:18;;;;;;;1.52;0.70;;;;;;;12.32;88.86;96888.97;5046771;27;103109;-60
2022/09/27 02:09:53;;;;;;;0.88;0.65;;;;;;;12.24;90.54;96886.34;5047915;27;104265;-60
2022/09/27 02:12:29;;;;;;;1.03;0.60;;;;;;;11.98;91.87;96891.75;5049689;27;104114;-61
2022/09/27 02:15:04;;;;;;;0.82;0.60;;;;;;;12.52;89.21;96887.66;5049535;27;103563;-60
2022/09/27 02:17:43;;;;;;;0.90;0.80;;;;;;;12.40;89.28;96881.88;5048686;27;103093;-60
2022/09/27 02:20:18;;;;;;;0.93;0.60;;;;;;;11.77;92.80;96894.84;5050985;27;104815;-60
2022/09/27 02:22:57;;;;;;;1.92;0.45;;;;;;;12.17;91.64;96907.31;5042213;27;103318;-61
2022/09/27 02:25:30;;;;;;;2.05;0.80;;;;;;;11.98;91.59;96913.75;5046032;27;104320;-60
2022/09/27 02:28:03;;;;;;;1.30;0.80;;;;;;;12.15;91.18;96914.59;5046349;27;104179;-60
2022/09/27 02:30:34;;;;;;;1.35;0.60;;;;;;;11.84;93.76;96914.38;5050460;27;104127;-60
2022/09/27 02:33:16;;;;;;;1.00;0.60;;;;;;;11.84;93.49;96917.03;5045410;27;103396;-60
2022/09/27 02:35:46;;;;;;;0.85;0.50;;;;;;;12.03;93.23;96926.50;5049446;27;103379;-61
2022/09/27 02:38:14;;;;;;;1.57;0.80;;;;;;;11.92;93.33;96917.03;5049374;27;103279;-61
2022/09/27 02:40:46;;;;;;;1.38;0.77;;;;;;;12.17;92.91;96918.75;5042188;27;103916;-60
2022/09/27 02:43:17;;;;;;;0.93;0.60;;;;;;;12.11;92.09;96911.44;5049697;27;104220;-60
2022/09/27 02:46:01;;;;;;;1.15;0.70;;;;;;;12.16;92.41;96914.44;5048769;27;103542;-60
2022/09/27 02:48:37;;;;;;;1.30;0.60;;;;;;;12.27;90.16;96912.47;5047617;27;102924;-60
2022/09/27 02:51:27;;;;;;;0.68;0.40;;;;;;;12.33;90.47;96911.78;5051024;27;102950;-60
2022/09/27 02:54:11;;;;;;;1.48;0.40;;;;;;;12.19;90.12;96914.09;5049442;27;104411;-60
2022/09/27 02:57:11;;;;;;;0.80;0.57;;;;;;;11.82;89.13;96924.28;5067900;27;103433;-60
2022/09/27 03:00:08;;;;;;;0.98;0.40;;;;;;;11.95;89.52;96924.66;5053948;27;102812;-61
2022/09/27 03:02:57;;;;;;;1.77;0.60;;;;;;;11.81;88.18;96933.22;5050142;27;102768;-61
2022/09/27 03:05:33;;;;;;;2.10;0.60;;;;;;;11.60;88.10;96940.69;5068679;27;103154;-60
2022/09/27 03:08:04;;;;;;;2.25;0.60;;;;;;;11.73;87.33;96941.13;5050566;27;104280;-60
2022/09/27 03:10:33;;;;;;;1.80;0.60;;;;;;;11.86;86.97;96936.22;5050631;27;102792;-59
2022/09/27 03:13:03;;;;;;;2.45;0.90;;;;;;;11.80;86.87;96936.84;5047747;27;104655;-60
2022/09/27 03:15:32;;;;;;;2.38;0.70;;;;;;;12.01;86.30;96945.16;5054906;27;104268;-60
2022/09/27 03:18:00;;;;;;;1.23;0.60;;;;;;;12.20;85.92;96942.25;5073536;27;103127;-60
2022/09/27 03:20:46;;;;;;;1.07;0.60;;;;;;;11.83;86.39;96957.69;5076475;27;102840;-65
2022/09/27 03:23:18;;;;;;;1.38;0.65;;;;;;;11.91;87.29;96955.06;5051337;27;103560;-65
2022/09/27 03:25:46;;;;;;;1.40;0.65;;;;;;;11.90;86.56;96958.69;5054054;27;104253;-66
2022/09/27 03:28:15;;;;;;;1.40;0.60;;;;;;;12.13;86.60;96958.91;5054457;27;104014;-66
2022/09/27 03:30:45;;;;;;;3.10;0.70;;;;;;;11.96;86.48;96955.41;5053237;27;102835;-66
2022/09/27 03:33:26;;;;;;;0.80;0.70;;;;;;;11.98;87.30;96961.38;5052204;27;104028;-65
2022/09/27 03:35:58;;;;;;;1.10;0.60;;;;;;;11.64;88.42;96958.75;5055897;27;104321;-65
2022/09/27 03:38:28;;;;;;;2.40;0.68;;;;;;;11.89;87.66;96965.00;5056324;27;104080;-66
2022/09/27 03:40:57;;;;;;;2.95;0.90;;;;;;;11.78;87.25;96965.28;5056664;27;103911;-60
2022/09/27 03:43:25;;;;;;;1.63;0.80;;;;;;;11.83;86.58;96968.28;5051565;27;102728;-57
2022/09/27 03:45:56;;;;;;;1.73;0.93;;;;;;;12.13;86.02;96970.34;5053693;27;103677;-59
2022/09/27 03:48:25;;;;;;;2.30;0.90;;;;;;;11.97;85.65;96969.47;5068277;27;103347;-62
2022/09/27 03:50:55;;;;;;;1.60;0.90;;;;;;;11.84;85.44;96969.94;5055098;27;103061;-60
2022/09/27 03:53:23;;;;;;;1.55;0.80;;;;;;;11.66;86.56;96966.50;5052210;27;104440;-60
2022/09/27 03:55:53;;;;;;;1.90;0.90;;;;;;;11.40;87.57;96965.72;5055250;27;103420;-60
2022/09/27 03:58:21;;;;;;;2.00;1.00;;;;;;;11.74;87.14;96966.59;5054122;27;104221;-60
2022/09/27 04:00:49;;;;;;;2.40;0.90;;;;;;;11.58;87.35;96974.41;5053155;27;102947;-60
2022/09/27 04:03:18;;;;;;;4.30;1.20;;;;;;;11.24;89.21;96968.28;5049551;27;104139;-60
2022/09/27 04:06:05;;;;;;;2.40;1.10;;;;;;;11.39;88.59;96980.78;5066210;27;102996;-60
2022/09/27 04:08:38;;;;;;;1.83;1.10;;;;;;;11.63;87.93;96972.13;5050799;27;104302;-59
2022/09/27 04:11:08;;;;;;;2.95;1.17;;;;;;;11.57;87.82;96972.75;5051682;27;102927;-60
2022/09/27 04:13:37;;;;;;;2.40;1.30;;;;;;;11.62;87.40;96981.88;5051159;27;102733;-59
2022/09/27 04:16:06;;;;;;;3.17;1.20;;;;;;;11.60;87.95;96983.03;5045279;27;104273;-60
2022/09/27 04:19:09;;;;;;;3.00;1.10;;;;;;;11.82;86.98;96977.19;5046851;27;103201;-60
2022/09/27 04:21:40;;;;;;;3.57;1.30;;;;;;;11.94;86.47;96983.84;5074588;27;103002;-60
2022/09/27 04:24:10;;;;;;;3.07;1.20;;;;;;;12.08;85.55;96975.31;5049119;27;103218;-59
2022/09/27 04:26:48;;;;;;;2.93;1.40;;;;;;;12.12;85.91;96983.75;5040167;27;104456;-59
2022/09/27 04:29:22;;;;;;;3.00;1.23;;;;;;;12.13;85.43;96986.22;5055807;27;105353;-60
2022/09/27 04:31:52;;;;;;;2.17;1.25;;;;;;;12.17;85.23;96984.94;5055947;27;102802;-60
2022/09/27 04:37:45;;;;;;;5.30;1.90;;;;;;;11.36;87.04;96980.25;5056411;27;104177;-60
2022/09/27 04:40:15;;;;;;;4.68;1.50;;;;;;;11.59;87.02;96984.03;5055944;27;104225;-59
2022/09/27 04:42:44;;;;;;;4.35;1.67;;;;;;;11.51;87.34;96981.31;5053105;27;102655;-60
2022/09/27 04:45:13;;;;;;;3.60;1.50;;;;;;;11.78;86.63;96997.03;5052558;27;103382;-59
2022/09/27 04:47:43;;;;;;;4.15;1.60;;;;;;;11.63;87.23;96993.28;5070919;27;103632;-60
2022/09/27 04:50:11;;;;;;;4.03;1.70;;;;;;;11.84;86.09;97001.69;5060452;27;103330;-60
2022/09/27 04:52:55;;;;;;;4.35;1.83;;;;;;;11.99;85.87;97010.66;5047745;27;103313;-59
2022/09/27 04:55:23;;;;;;;3.35;1.70;;;;;;;11.44;87.21;97010.22;5052153;27;103749;-60
2022/09/27 04:57:53;;;;;;;5.07;1.83;;;;;;;11.42;89.05;97012.19;5055609;27;103129;-59
2022/09/27 05:00:21;;;;;;;3.75;1.60;;;;;;;11.56;88.22;97008.94;5051488;27;104489;-59
2022/09/27 05:02:56;;;;;;;3.97;1.70;;;;;;;11.33;88.70;97013.13;5055545;27;102968;-59
2022/09/27 05:05:37;;;;;;;3.55;1.67;;;;;;;11.43;88.37;97019.13;5054578;27;102818;-59
2022/09/27 05:08:05;;;;;;;3.33;1.80;;;;;;;11.73;86.83;97019.66;5059085;27;104310;-59
2022/09/27 05:10:54;;;;;;;4.40;2.00;;;;;;;11.48;87.04;97027.41;5066057;27;104249;-60
2022/09/27 05:13:23;;;;;;;4.50;1.73;;;;;;;11.57;86.99;97028.28;5018148;27;102737;-59
2022/09/27 05:15:51;;;;;;;3.08;1.70;;;;;;;11.59;87.03;97031.63;5043121;27;103776;-59
2022/09/27 05:18:45;;;;;;;4.57;1.58;;;;;;;11.50;88.13;97040.50;5023215;27;102939;-59
2022/09/27 05:21:32;;;;;;;6.03;1.58;;;;;;;11.27;88.25;97045.47;5065530;27;105466;-59
2022/09/27 05:24:00;;;;;;;4.00;1.50;;;;;;;11.52;88.14;97059.66;5049454;27;103087;-59
2022/09/27 05:26:30;;;;;;;3.60;1.42;;;;;;;11.69;86.57;97050.88;5042459;27;102686;-59
2022/09/27 05:28:59;;;;;;;3.78;1.50;;;;;;;11.87;86.82;97056.94;5040952;27;104476;-59
2022/09/27 05:31:28;;;;;;;3.65;1.58;;;;;;;11.85;86.84;97056.25;5044053;27;103193;-59
2022/09/27 05:33:56;;;;;;;2.83;1.40;;;;;;;11.94;87.68;97068.53;5040903;27;102749;-58
2022/09/27 05:36:33;;;;;;;2.90;1.50;;;;;;;11.60;88.30;97075.59;5019595;27;103364;-59
2022/09/27 05:39:01;;;;;;;3.42;1.50;;;;;;;11.60;88.14;97084.34;4993736;27;104092;-59
2022/09/27 05:41:31;;;;;;;2.10;1.58;;;;;;;11.51;88.95;97087.91;4993550;27;103864;-59
2022/09/27 05:44:01;;;;;;;2.33;1.30;;;;;;;11.25;89.08;97092.38;4993732;27;102948;-59
2022/09/27 05:46:29;;;;;;;3.20;1.02;;;;;;;11.31;89.19;97093.56;4999222;27;102756;-58
2022/09/27 05:48:57;;;;;;;2.17;1.15;;;;;;;11.39;87.88;97093.63;5003580;27;105910;-59
2022/09/27 05:51:25;;;;;;;1.50;1.00;;;;;;;11.71;85.79;97083.28;5000573;27;104322;-59
2022/09/27 05:53:53;;;;;;;1.48;0.98;;;;;;;11.94;85.69;97091.50;5001591;27;102941;-59
2022/09/27 05:56:27;;;;;;;1.87;1.00;;;;;;;11.22;87.94;97097.13;4987278;27;103174;-58
2022/09/27 05:59:28;;;;;;;1.60;0.90;;;;;;;11.35;87.40;97110.78;4976239;27;104300;-59
2022/09/27 06:02:15;;;;;;;2.38;1.00;;;;;;;11.29;86.25;97108.75;5014872;27;103874;-59
2022/09/27 06:04:55;;;;;;;1.77;1.00;;;;;;;11.36;86.26;97105.34;5009913;27;102615;-59
2022/09/27 06:07:42;;;;;;;3.00;1.00;;;;;;;11.61;86.33;97111.63;5013504;27;103898;-59
2022/09/27 06:10:15;;;;;;;1.50;1.10;;;;;;;11.53;86.14;97116.88;4995630;27;105762;-59
2022/09/27 06:12:43;;;;;;;2.15;1.02;;;;;;;11.51;86.42;97127.59;4999338;27;104221;-59
2022/09/27 06:15:34;;;;;;;3.15;1.20;;;;;;;11.42;87.93;97127.69;5000501;27;102684;-59
2022/09/27 06:18:05;;;;;;;1.70;1.07;;;;;;;11.79;85.63;97135.44;5000616;27;103022;-59
2022/09/27 06:20:34;;;;;;;2.65;1.27;;;;;;;11.42;86.21;97138.28;4998229;27;104018;-59
2022/09/27 06:23:06;;;;;;;2.07;0.90;;;;;;;11.44;88.02;97142.44;4996516;27;104381;-59
2022/09/27 06:25:38;;;;;;;2.70;1.30;;;;;;;11.69;86.77;97135.53;4990414;27;102732;-59
2022/09/27 06:28:19;;;;;;;2.80;1.17;;;;;;;11.66;86.17;97138.44;5000819;27;102925;-60
2022/09/27 06:30:51;;;;;;;2.43;0.90;;;;;;;11.41;87.19;97134.78;5000062;27;103494;-59
2022/09/27 06:33:27;;;;;;;1.20;0.90;;;;;;;11.40;88.17;97129.66;5000332;28;103976;-59
2022/09/27 06:36:01;;;;;;;2.10;1.00;;;;;;;11.53;86.27;97140.69;4999462;27;102908;-59
2022/09/27 06:38:30;;;;;;;1.43;0.97;;;;;;;11.84;85.29;97144.56;5018338;27;104218;-59
2022/09/27 06:41:13;;;;;;;1.60;0.70;;;;;;;11.80;84.65;97143.19;4999636;27;103055;-59
2022/09/27 06:43:53;;;;;;;2.28;0.90;;;;;;;11.74;84.08;97151.75;5015654;27;103286;-59
2022/09/27 06:46:41;;;;;;;2.85;0.77;;;;;;;11.54;84.80;97150.25;5020845;27;102877;-60
2022/09/27 06:49:28;;;;;;;2.80;0.80;;;;;;;11.32;86.06;97153.38;5019521;27;104188;-59
2022/09/27 06:51:57;;;;;;;0.90;0.80;;;;;;;11.66;84.38;97156.97;4999744;27;103837;-59
2022/09/27 06:54:25;;;;;;;1.63;0.80;;;;;;;11.29;84.29;97164.25;5003439;27;104141;-59
2022/09/27 06:56:53;;;;;;;0.98;0.73;;;;;;;11.27;85.89;97155.66;5021323;27;103153;-59
2022/09/27 07:02:30;;;;;;;0.90;0.63;;;;;;;11.22;82.97;97173.78;5024348;27;103806;-59
2022/09/27 07:05:20;;;;;;;1.20;0.50;;;;;;;11.23;82.77;97180.75;4978726;27;103455;-59
2022/09/27 07:08:06;;;;;;;1.03;0.50;;;;;;;11.06;83.29;97179.72;5021407;27;102667;-59
2022/09/27 07:10:36;;;;;;;1.10;0.60;;;;;;;11.16;82.61;97184.97;5005020;27;103936;-59
2022/09/27 07:13:06;;;;;;;1.00;0.50;;;;;;;11.56;81.86;97187.97;5003240;27;104507;-58
2022/09/27 07:15:35;;;;;;;0.60;0.53;;;;;;;11.57;82.37;97184.31;5032873;27;105982;-59
2022/09/27 07:18:08;;;;;;;0.70;0.35;;;;;;;11.67;82.52;97182.44;5022410;27;102692;-59
2022/09/27 07:20:37;;;;;;;0.70;0.57;;;;;;;12.00;81.73;97187.00;5003973;27;102801;-58
2022/09/27 07:23:07;;;;;;;1.10;0.60;;;;;;;11.60;83.68;97195.44;5003499;27;104195;-59
2022/09/27 07:25:35;;;;;;;1.60;0.60;;;;;;;11.68;82.55;97193.84;5003513;27;104209;-59
2022/09/27 07:28:05;;;;;;;1.13;0.68;;;;;;;11.38;83.81;97195.06;5001562;27;102964;-59
2022/09/27 07:30:36;;;;;;;1.85;0.70;;;;;;;11.62;83.98;97203.25;5001664;27;104215;-59
2022/09/27 07:33:07;;;;;;;1.10;0.80;;;;;;;11.72;84.37;97203.16;5001656;27;103347;-59
2022/09/27 07:35:39;;;;;;;0.73;0.50;;;;;;;11.57;85.44;97208.97;5002098;27;104201;-59
2022/09/27 07:38:08;;;;;;;2.35;0.90;;;;;;;11.66;83.98;97215.16;5018115;27;102715;-60
2022/09/27 07:40:37;;;;;;;1.33;0.80;;;;;;;11.79;84.81;97220.09;4998200;27;103970;-60
2022/09/27 07:43:07;;;;;;;1.20;0.60;;;;;;;11.40;84.84;97227.47;5000366;27;104211;-60
2022/09/27 07:45:36;;;;;;;0.80;0.47;;;;;;;11.64;85.72;97227.72;5002765;27;103319;-60
2022/09/27 07:48:23;;;;;;;0.70;0.60;;;;;;;11.95;84.86;97233.44;5022307;27;102683;-60
2022/09/27 07:51:20;;;;;;;0.52;0.52;;;;;;;11.99;84.46;97227.66;4944722;28;103220;-60
2022/09/27 07:53:52;;;;;;;1.63;0.70;;;;;;;12.66;82.56;97226.91;5003733;27;105503;-60
2022/09/27 07:56:40;;;;;;;1.02;0.60;;;;;;;12.06;82.87;97227.91;4987036;27;103266;-60
2022/09/27 07:59:11;;;;;;;0.88;0.65;;;;;;;12.11;83.17;97231.75;5001069;27;102700;-60
2022/09/27 08:01:39;;;;;;;3.30;1.00;;;;;;;12.64;82.29;97220.94;5001583;27;103026;-60
2022/09/27 08:04:09;;;;;;;1.90;0.80;;;;;;;12.71;82.33;97229.09;5002478;28;103284;-60
2022/09/27 08:06:37;;;;;;;2.10;0.93;;;;;;;12.81;79.90;97232.44;5001556;27;103333;-61
2022/09/27 08:09:06;;;;;;;1.00;0.77;;;;;;;13.24;78.69;97226.97;5000682;28;103998;-60
2022/09/27 08:11:34;;;;;;;1.52;0.82;;;;;;;12.87;81.32;97229.16;5001284;27;103978;-61
2022/09/27 08:14:03;;;;;;;0.77;0.67;;;;;;;12.47;80.54;97231.59;5001883;27;106196;-60
2022/09/27 08:16:34;;;;;;;1.05;0.80;;;;;;;12.58;79.33;97249.88;5001737;27;103249;-61
2022/09/27 08:19:16;;;;;;;2.88;1.00;;;;;;;12.43;78.94;97247.00;5001436;27;102746;-60
2022/09/27 08:22:03;;;;;;;1.13;0.90;;;;;;;13.46;78.20;97256.50;5018665;27;103486;-61
2022/09/27 08:24:45;;;;;;;2.72;0.90;;;;;;;14.20;75.79;97261.69;5001249;27;104367;-60
2022/09/27 08:27:32;;;;;;;2.03;0.80;;;;;;;14.00;72.00;97257.72;5021611;27;103143;-61
2022/09/27 08:30:03;;;;;;;2.25;0.90;;;;;;;13.89;74.68;97265.00;5002064;27;102865;-61
2022/09/27 08:32:32;;;;;;;2.33;0.73;;;;;;;13.46;74.29;97267.13;5035287;27;105931;-61
2022/09/27 08:35:03;;;;;;;1.83;0.70;;;;;;;13.74;72.44;97273.78;5033540;27;105435;-61
2022/09/27 08:37:34;;;;;;;2.23;0.77;;;;;;;13.25;74.26;97271.03;5001339;27;104432;-61
2022/09/27 08:40:02;;;;;;;0.80;0.60;;;;;;;13.75;74.15;97267.50;5003009;27;103176;-61
2022/09/27 08:42:41;;;;;;;1.70;0.77;;;;;;;14.05;71.42;97272.16;5002158;27;102835;-61
2022/09/27 08:45:17;;;;;;;1.90;0.60;;;;;;;13.88;72.83;97278.44;5029256;27;105526;-61
2022/09/27 08:47:50;;;;;;;1.03;0.70;;;;;;;13.28;73.70;97286.63;5035167;27;104178;-61
2022/09/27 08:50:27;;;;;;;1.90;0.80;;;;;;;13.17;74.60;97284.28;5001407;27;102741;-62
2022/09/27 08:53:02;;;;;;;2.00;0.80;;;;;;;13.45;71.95;97284.03;5017998;27;103496;-61
2022/09/27 08:55:36;;;;;;;1.50;0.80;;;;;;;13.64;72.29;97278.44;5002973;27;105877;-61
2022/09/27 08:58:15;;;;;;;2.92;0.80;;;;;;;13.83;72.92;97281.63;4998561;27;103488;-61
2022/09/27 09:00:43;;;;;;;1.35;0.60;;;;;;;13.88;71.50;97284.59;5033584;27;102774;-62
2022/09/27 09:03:18;;;;;;;1.85;0.98;;;;;;;13.46;73.74;97285.69;5004564;27;103984;-61
2022/09/27 09:06:00;;;;;;;1.30;0.90;;;;;;;13.75;72.21;97294.03;5000878;27;104754;-61
2022/09/27 09:08:38;;;;;;;1.70;0.93;;;;;;;13.31;73.56;97283.66;5001500;27;104232;-61
2022/09/27 09:14:25;;;;;;;2.15;1.00;;;;;;;13.35;74.18;97287.66;4994373;27;102786;-60
2022/09/27 09:17:03;;;;;;;1.97;0.90;;;;;;;13.03;75.39;97291.97;4997280;27;102683;-60
2022/09/27 09:19:53;;;;;;;1.37;0.87;;;;;;;12.80;75.92;97291.72;4999574;28;104352;-59
2022/09/27 09:22:44;;;;;;;1.83;1.00;;;;;;;12.93;77.74;97291.28;5017111;27;102631;-59
2022/09/27 09:25:23;;;;;;;1.50;0.93;;;;;;;13.03;76.19;97286.69;5001659;28;103383;-60
2022/09/27 09:28:04;;;;;;;1.83;0.98;;;;;;;13.28;76.10;97286.63;4999883;27;104304;-60
2022/09/27 09:30:42;;;;;;;2.33;0.80;;;;;;;12.88;77.61;97290.94;4999049;27;103069;-60
2022/09/27 09:33:26;;;;;;;1.95;0.90;;;;;;;13.44;76.95;97288.53;4998618;27;102869;-60
2022/09/27 09:36:00;;;;;;;2.17;0.70;;;;;;;13.88;74.53;97284.59;5000334;27;104444;-60
2022/09/27 09:38:39;;;;;;;1.60;0.63;;;;;;;13.93;72.95;97286.75;5016112;27;104486;-59
2022/09/27 09:41:15;;;;;;;1.00;0.70;;;;;;;14.38;70.92;97283.59;4998054;27;103464;-60
2022/09/27 09:43:47;;;;;;;2.30;0.80;;;;;;;15.04;69.29;97288.59;4999386;27;102769;-60
2022/09/27 09:46:21;;;;;;;1.57;0.90;;;;;;;15.65;67.98;97288.63;4999839;27;102669;-60
2022/09/27 09:48:57;;;;;;;1.43;0.80;;;;;;;15.19;66.21;97275.38;5002121;27;103510;-60
2022/09/27 09:51:33;;;;;;;1.30;0.77;;;;;;;15.47;64.94;97264.09;4998908;27;105073;-60
2022/09/27 09:54:08;;;;;;;2.17;0.90;;;;;;;14.89;65.29;97279.66;5004575;28;102693;-60
2022/09/27 09:56:44;;;;;;;2.05;0.90;;;;;;;14.82;65.08;97278.69;5001597;27;103811;-60
2022/09/27 09:59:17;;;;;;;2.25;1.10;;;;;;;14.95;64.20;97260.38;4999370;27;104345;-60
2022/09/27 10:01:56;;;;;;;1.92;1.10;;;;;;;14.33;65.56;97262.03;5016966;27;103352;-60
2022/09/27 10:04:26;;;;;;;1.50;1.00;;;;;;;14.55;66.35;97257.81;4998882;27;103449;-60
2022/09/27 10:06:59;;;;;;;2.00;1.20;;;;;;;15.01;64.85;97251.69;5000482;27;102831;-60
2022/09/27 10:09:33;;;;;;;3.87;1.30;;;;;;;14.83;64.28;97248.44;4998168;27;103850;-60
2022/09/27 10:12:22;;;;;;;2.25;1.08;;;;;;;14.86;62.60;97253.41;4990190;27;103137;-60
2022/09/27 10:14:54;;;;;;;2.17;0.90;;;;;;;15.47;61.65;97250.81;4999820;27;102994;-60
2022/09/27 10:17:27;;;;;;;2.40;1.17;;;;;;;15.28;61.78;97255.69;5016905;27;103069;-59
2022/09/27 10:19:58;;;;;;;2.22;1.15;;;;;;;15.38;60.15;97249.16;4999410;27;105908;-60
2022/09/27 10:22:32;;;;;;;2.05;1.00;;;;;;;14.70;62.16;97254.31;4998798;27;103209;-60
2022/09/27 10:25:09;;;;;;;2.92;1.05;;;;;;;14.76;62.18;97255.44;4970172;27;103720;-60
2022/09/27 10:27:55;;;;;;;3.45;1.10;;;;;;;14.88;63.63;97246.91;5028077;27;104039;-60
2022/09/27 10:30:31;;;;;;;1.88;0.95;;;;;;;14.61;62.33;97257.16;4992648;27;104192;-60
2022/09/27 10:33:06;;;;;;;2.42;1.10;;;;;;;14.95;62.31;97257.69;4995878;27;103821;-61
2022/09/27 10:35:44;;;;;;;1.05;0.88;;;;;;;14.52;63.32;97251.84;5013501;27;102693;-61
2022/09/27 10:38:25;;;;;;;1.73;0.90;;;;;;;14.71;62.27;97241.84;4997696;27;104285;-60
2022/09/27 10:41:17;;;;;;;1.67;1.02;;;;;;;14.84;61.91;97255.41;5019916;27;104004;-60
2022/09/27 10:43:45;;;;;;;2.00;0.98;;;;;;;14.95;63.69;97255.03;4992147;28;105233;-61
2022/09/27 10:46:27;;;;;;;2.17;0.90;;;;;;;15.12;62.83;97253.97;4991773;28;102800;-63
2022/09/27 10:49:17;;;;;;;1.83;0.98;;;;;;;14.74;65.13;97260.91;4999134;28;103310;-61
2022/09/27 10:51:50;;;;;;;2.75;1.00;;;;;;;14.67;66.33;97248.50;4989940;28;104156;-61
2022/09/27 10:54:21;;;;;;;1.05;0.70;;;;;;;15.19;65.21;97252.25;4994340;28;104110;-60
2022/09/27 10:57:04;;;;;;;2.45;0.88;;;;;;;14.69;65.38;97254.47;4991667;28;102943;-61
2022/09/27 10:59:36;;;;;;;2.53;1.00;;;;;;;14.99;64.98;97240.38;4991011;28;104420;-60
2022/09/27 11:02:07;;;;;;;1.90;0.85;;;;;;;14.54;66.07;97234.94;4984228;28;104252;-60
2022/09/27 11:04:39;;;;;;;1.80;0.80;;;;;;;15.01;66.77;97231.25;4981334;28;103243;-60
2022/09/27 11:07:13;;;;;;;1.50;0.60;;;;;;;15.48;65.97;97225.84;4989988;28;102671;-60
2022/09/27 11:09:51;;;;;;;0.98;0.70;;;;;;;15.19;66.15;97225.66;4975212;28;104441;-60
2022/09/27 11:12:24;;;;;;;1.67;0.75;;;;;;;15.03;67.41;97215.13;4975643;28;105936;-60
2022/09/27 11:14:56;;;;;;;2.83;0.90;;;;;;;14.92;65.04;97215.50;5007938;28;104701;-60
2022/09/27 11:17:35;;;;;;;2.17;0.90;;;;;;;13.98;65.63;97220.69;4975078;28;103075;-60
2022/09/27 11:20:13;;;;;;;2.30;0.90;;;;;;;14.23;66.57;97211.69;4974959;28;103790;-60
2022/09/27 11:23:22;;;;;;;1.60;0.73;;;;;;;14.82;64.67;97220.22;4970903;27;103259;-60
2022/09/27 11:26:04;;;;;;;2.53;0.80;;;;;;;14.51;64.86;97212.19;4973016;27;104684;-60
2022/09/27 11:28:44;;;;;;;3.00;1.10;;;;;;;14.27;63.54;97204.22;5024193;27;103146;-60
2022/09/27 11:31:34;;;;;;;1.70;0.80;;;;;;;14.17;64.86;97204.44;4996224;27;104404;-60
2022/09/27 11:34:28;;;;;;;2.10;0.80;;;;;;;14.62;64.29;97200.34;4995381;27;105929;-60
2022/09/27 11:37:06;;;;;;;1.20;0.80;;;;;;;14.13;63.43;97197.78;5008776;27;103560;-61
2022/09/27 11:39:50;;;;;;;1.10;0.70;;;;;;;14.32;63.73;97192.13;4999213;27;102795;-60
2022/09/27 11:42:38;;;;;;;1.92;0.63;;;;;;;14.20;63.29;97198.78;4996734;28;103071;-60
2022/09/27 11:45:29;;;;;;;2.33;1.05;;;;;;;13.95;63.47;97197.13;4985327;27;103938;-60
2022/09/27 11:48:29;;;;;;;0.80;0.60;;;;;;;13.78;64.06;97211.44;5016717;27;104014;-60
2022/09/27 11:51:20;;;;;;;1.20;0.70;;;;;;;13.67;66.27;97223.19;4999202;27;103420;-60
2022/09/27 11:54:05;;;;;;;1.00;0.60;;;;;;;14.10;63.76;97245.09;5014498;27;103077;-60
2022/09/27 11:56:45;;;;;;;2.90;1.50;;;;;;;13.24;70.87;97269.41;5028101;27;103809;-60
2022/09/27 11:59:41;;;;;;;2.72;1.40;;;;;;;12.19;75.28;97287.38;4995830;27;104127;-60
2022/09/27 12:02:27;;;;;;;4.25;1.05;;;;;;;11.61;78.41;97294.13;4999507;27;102817;-59
2022/09/27 12:05:14;;;;;;;1.67;0.63;;;;;;;11.52;78.87;97284.47;5004204;27;104211;-60
2022/09/27 12:08:07;;;;;;;1.35;0.50;;;;;;;12.13;76.38;97280.06;5022246;27;104749;-59
2022/09/27 12:10:38;;;;;;;1.13;0.60;;;;;;;12.33;76.05;97279.84;4999394;27;104236;-59
2022/09/27 12:13:11;;;;;;;1.30;0.50;;;;;;;12.93;74.78;97270.91;5002955;27;102762;-59
2022/09/27 12:15:43;;;;;;;1.55;0.52;;;;;;;12.54;75.46;97275.88;5001961;27;102776;-59